Cardoso, Brazil
Current Conditions -  °F | °C
As of 9:00 PM on Tuesday 25 Nov 2014 (Local Time) from SBSR Reporting Station
Moderate Rain Moderate Rain  
Wind Chill: 72°   Ceiling: 2000
Heat Index: 72°   Visibility: 1.8mi
Dew Point: 70°   Wind: 2mph
Humidity: 94%   Direction: 360°N
Pressure: 29.88"   Gusts: NA
Location:  20.08°S, 49.91°W
Report Text: SBSR 252300Z 36002KT 3000 RA BR SCT005 OVC020 22/21 Q1012 RERA
Loading
Personal Weather Stations






























Interactive Weather Map New forecast layout! Learn more

10-Day Weather Forecast

Advertisements
Track Severe Weather on mobile